sensor_id;sensor_type;location;lat;lon;timestamp;temperature;humidity
975;DHT22;6115;49.296;10.602;2022-07-29T00:02:12;20.30;43.50
975;DHT22;6115;49.296;10.602;2022-07-29T00:07:13;20.60;42.50
975;DHT22;6115;49.296;10.602;2022-07-29T00:12:13;20.70;42.50
975;DHT22;6115;49.296;10.602;2022-07-29T00:17:14;20.70;42.40
975;DHT22;6115;49.296;10.602;2022-07-29T00:22:14;20.90;42.30
975;DHT22;6115;49.296;10.602;2022-07-29T00:27:16;21.00;41.60
975;DHT22;6115;49.296;10.602;2022-07-29T00:32:16;21.10;41.60
975;DHT22;6115;49.296;10.602;2022-07-29T00:37:17;21.10;41.60
975;DHT22;6115;49.296;10.602;2022-07-29T00:42:17;21.10;41.60
975;DHT22;6115;49.296;10.602;2022-07-29T00:47:18;21.10;41.60
975;DHT22;6115;49.296;10.602;2022-07-29T00:52:19;21.20;41.80
975;DHT22;6115;49.296;10.602;2022-07-29T00:57:20;21.10;42.40
975;DHT22;6115;49.296;10.602;2022-07-29T01:02:21;20.80;43.10
975;DHT22;6115;49.296;10.602;2022-07-29T01:07:21;20.90;42.80
975;DHT22;6115;49.296;10.602;2022-07-29T01:12:26;20.90;43.40
975;DHT22;6115;49.296;10.602;2022-07-29T01:23:07;20.70;43.80
975;DHT22;6115;49.296;10.602;2022-07-29T01:28:33;20.70;43.80
975;DHT22;6115;49.296;10.602;2022-07-29T01:33:45;20.70;44.10
975;DHT22;6115;49.296;10.602;2022-07-29T01:38:58;20.70;44.60
975;DHT22;6115;49.296;10.602;2022-07-29T01:44:06;20.60;44.90
975;DHT22;6115;49.296;10.602;2022-07-29T01:49:17;20.30;45.40
975;DHT22;6115;49.296;10.602;2022-07-29T01:54:25;20.30;45.60
975;DHT22;6115;49.296;10.602;2022-07-29T01:59:29;20.10;46.30
975;DHT22;6115;49.296;10.602;2022-07-29T02:04:32;19.80;47.00
975;DHT22;6115;49.296;10.602;2022-07-29T02:09:36;19.70;47.10
975;DHT22;6115;49.296;10.602;2022-07-29T02:14:42;19.60;47.60
975;DHT22;6115;49.296;10.602;2022-07-29T02:19:47;19.30;47.90
975;DHT22;6115;49.296;10.602;2022-07-29T02:24:50;19.30;48.10
975;DHT22;6115;49.296;10.602;2022-07-29T02:29:51;19.20;48.40
975;DHT22;6115;49.296;10.602;2022-07-29T02:34:53;19.10;48.70
975;DHT22;6115;49.296;10.602;2022-07-29T02:39:55;19.00;49.20
975;DHT22;6115;49.296;10.602;2022-07-29T02:44:57;18.80;49.00
975;DHT22;6115;49.296;10.602;2022-07-29T03:00:06;18.40;50.40
975;DHT22;6115;49.296;10.602;2022-07-29T03:05:11;18.10;51.70
975;DHT22;6115;49.296;10.602;2022-07-29T03:10:13;18.10;52.00
975;DHT22;6115;49.296;10.602;2022-07-29T03:15:14;18.00;52.20
975;DHT22;6115;49.296;10.602;2022-07-29T03:20:15;17.90;52.80
975;DHT22;6115;49.296;10.602;2022-07-29T03:25:17;18.00;52.80
975;DHT22;6115;49.296;10.602;2022-07-29T03:30:18;18.00;52.80
975;DHT22;6115;49.296;10.602;2022-07-29T03:35:19;18.00;52.90
975;DHT22;6115;49.296;10.602;2022-07-29T03:40:35;17.70;53.50
975;DHT22;6115;49.296;10.602;2022-07-29T03:45:38;17.50;54.10
975;DHT22;6115;49.296;10.602;2022-07-29T03:50:41;17.60;53.90
975;DHT22;6115;49.296;10.602;2022-07-29T03:55:48;17.70;53.70
975;DHT22;6115;49.296;10.602;2022-07-29T04:00:50;17.70;53.80
975;DHT22;6115;49.296;10.602;2022-07-29T04:06:02;17.60;53.80
975;DHT22;6115;49.296;10.602;2022-07-29T04:11:06;17.60;54.10
975;DHT22;6115;49.296;10.602;2022-07-29T04:16:07;17.40;54.90
975;DHT22;6115;49.296;10.602;2022-07-29T04:21:07;17.30;55.50
975;DHT22;6115;49.296;10.602;2022-07-29T04:26:08;17.20;55.10
975;DHT22;6115;49.296;10.602;2022-07-29T04:31:11;17.00;55.10
975;DHT22;6115;49.296;10.602;2022-07-29T04:36:12;17.00;55.20
975;DHT22;6115;49.296;10.602;2022-07-29T04:41:13;17.10;55.10
975;DHT22;6115;49.296;10.602;2022-07-29T04:46:13;16.90;55.30
975;DHT22;6115;49.296;10.602;2022-07-29T04:51:16;17.00;55.50
975;DHT22;6115;49.296;10.602;2022-07-29T04:56:17;17.00;55.80
975;DHT22;6115;49.296;10.602;2022-07-29T05:01:17;17.00;56.10
975;DHT22;6115;49.296;10.602;2022-07-29T05:06:18;17.10;56.00
975;DHT22;6115;49.296;10.602;2022-07-29T05:11:18;17.20;55.80
975;DHT22;6115;49.296;10.602;2022-07-29T05:16:19;17.20;55.90
975;DHT22;6115;49.296;10.602;2022-07-29T05:21:19;17.20;56.70
975;DHT22;6115;49.296;10.602;2022-07-29T05:26:20;17.20;56.70
975;DHT22;6115;49.296;10.602;2022-07-29T05:31:21;17.30;56.70
975;DHT22;6115;49.296;10.602;2022-07-29T05:36:21;17.40;56.20
975;DHT22;6115;49.296;10.602;2022-07-29T05:41:22;17.70;55.60
975;DHT22;6115;49.296;10.602;2022-07-29T05:46:22;17.90;55.10
975;DHT22;6115;49.296;10.602;2022-07-29T05:51:23;18.10;54.40
975;DHT22;6115;49.296;10.602;2022-07-29T05:56:24;18.40;53.20
975;DHT22;6115;49.296;10.602;2022-07-29T06:01:25;18.70;53.40
975;DHT22;6115;49.296;10.602;2022-07-29T06:06:26;19.00;52.80
975;DHT22;6115;49.296;10.602;2022-07-29T06:11:27;19.50;52.00
975;DHT22;6115;49.296;10.602;2022-07-29T06:16:28;19.80;51.50
975;DHT22;6115;49.296;10.602;2022-07-29T06:21:28;20.10;51.50
975;DHT22;6115;49.296;10.602;2022-07-29T06:26:29;20.30;51.20
975;DHT22;6115;49.296;10.602;2022-07-29T06:31:29;20.60;50.50
975;DHT22;6115;49.296;10.602;2022-07-29T06:36:30;20.80;50.70
975;DHT22;6115;49.296;10.602;2022-07-29T06:41:31;21.10;51.00
975;DHT22;6115;49.296;10.602;2022-07-29T06:46:31;21.40;50.50
975;DHT22;6115;49.296;10.602;2022-07-29T06:51:33;21.60;50.20
975;DHT22;6115;49.296;10.602;2022-07-29T06:56:35;21.70;50.10
975;DHT22;6115;49.296;10.602;2022-07-29T07:01:39;21.90;49.20
975;DHT22;6115;49.296;10.602;2022-07-29T07:06:40;22.00;49.10
975;DHT22;6115;49.296;10.602;2022-07-29T07:11:41;22.30;48.40
975;DHT22;6115;49.296;10.602;2022-07-29T07:16:41;22.50;47.60
975;DHT22;6115;49.296;10.602;2022-07-29T07:21:42;22.90;47.40
975;DHT22;6115;49.296;10.602;2022-07-29T07:26:43;23.30;46.60
975;DHT22;6115;49.296;10.602;2022-07-29T07:31:43;23.50;45.30
975;DHT22;6115;49.296;10.602;2022-07-29T07:36:44;23.70;45.10
975;DHT22;6115;49.296;10.602;2022-07-29T07:41:44;23.70;44.70
975;DHT22;6115;49.296;10.602;2022-07-29T07:46:45;23.70;44.70
975;DHT22;6115;49.296;10.602;2022-07-29T07:51:45;23.90;44.00
975;DHT22;6115;49.296;10.602;2022-07-29T07:56:46;24.30;43.70
975;DHT22;6115;49.296;10.602;2022-07-29T08:01:49;24.40;41.90
975;DHT22;6115;49.296;10.602;2022-07-29T08:06:50;24.40;40.80
975;DHT22;6115;49.296;10.602;2022-07-29T08:11:51;24.80;40.90
975;DHT22;6115;49.296;10.602;2022-07-29T08:16:52;25.20;39.90
975;DHT22;6115;49.296;10.602;2022-07-29T08:21:54;25.30;39.10
975;DHT22;6115;49.296;10.602;2022-07-29T08:26:54;25.90;38.90
975;DHT22;6115;49.296;10.602;2022-07-29T08:31:55;26.20;37.30
975;DHT22;6115;49.296;10.602;2022-07-29T08:36:56;26.50;37.50
975;DHT22;6115;49.296;10.602;2022-07-29T08:41:57;26.80;36.50
975;DHT22;6115;49.296;10.602;2022-07-29T08:46:58;27.00;36.60
975;DHT22;6115;49.296;10.602;2022-07-29T08:51:59;27.30;35.10
975;DHT22;6115;49.296;10.602;2022-07-29T08:57:00;27.40;35.70
975;DHT22;6115;49.296;10.602;2022-07-29T09:02:02;27.20;35.00
975;DHT22;6115;49.296;10.602;2022-07-29T09:07:04;27.30;35.00
975;DHT22;6115;49.296;10.602;2022-07-29T09:12:06;27.60;34.40
975;DHT22;6115;49.296;10.602;2022-07-29T09:17:08;27.90;34.10
975;DHT22;6115;49.296;10.602;2022-07-29T09:22:09;27.50;32.90
975;DHT22;6115;49.296;10.602;2022-07-29T09:32:17;27.90;32.80
975;DHT22;6115;49.296;10.602;2022-07-29T09:37:30;28.10;31.60
975;DHT22;6115;49.296;10.602;2022-07-29T09:42:31;28.00;31.90
975;DHT22;6115;49.296;10.602;2022-07-29T09:47:42;28.30;31.60
975;DHT22;6115;49.296;10.602;2022-07-29T09:52:47;28.20;31.80
975;DHT22;6115;49.296;10.602;2022-07-29T09:57:48;28.10;31.90
975;DHT22;6115;49.296;10.602;2022-07-29T10:02:48;28.10;32.00
975;DHT22;6115;49.296;10.602;2022-07-29T10:07:57;28.80;31.60
975;DHT22;6115;49.296;10.602;2022-07-29T10:13:00;29.20;29.80
975;DHT22;6115;49.296;10.602;2022-07-29T10:18:01;29.70;28.90
975;DHT22;6115;49.296;10.602;2022-07-29T10:23:02;30.10;28.50
975;DHT22;6115;49.296;10.602;2022-07-29T10:28:03;30.30;26.80
975;DHT22;6115;49.296;10.602;2022-07-29T10:33:39;30.70;27.00
975;DHT22;6115;49.296;10.602;2022-07-29T10:43:46;31.30;25.80
975;DHT22;6115;49.296;10.602;2022-07-29T10:49:06;31.70;25.60
975;DHT22;6115;49.296;10.602;2022-07-29T10:54:07;32.30;24.70
975;DHT22;6115;49.296;10.602;2022-07-29T11:09:43;31.80;23.70
975;DHT22;6115;49.296;10.602;2022-07-29T11:25:31;31.40;23.80
975;DHT22;6115;49.296;10.602;2022-07-29T11:30:49;31.20;24.00
975;DHT22;6115;49.296;10.602;2022-07-29T11:36:11;30.70;24.60
975;DHT22;6115;49.296;10.602;2022-07-29T11:41:25;30.60;25.00
975;DHT22;6115;49.296;10.602;2022-07-29T11:46:55;30.30;25.20
975;DHT22;6115;49.296;10.602;2022-07-29T11:51:57;29.90;26.20
975;DHT22;6115;49.296;10.602;2022-07-29T11:56:58;29.70;26.60
975;DHT22;6115;49.296;10.602;2022-07-29T12:01:59;29.70;28.90
975;DHT22;6115;49.296;10.602;2022-07-29T12:07:00;29.50;28.80
975;DHT22;6115;49.296;10.602;2022-07-29T12:12:01;29.20;30.80
975;DHT22;6115;49.296;10.602;2022-07-29T12:17:01;29.10;28.60
975;DHT22;6115;49.296;10.602;2022-07-29T12:22:02;28.90;29.50
975;DHT22;6115;49.296;10.602;2022-07-29T12:27:03;28.80;28.40
975;DHT22;6115;49.296;10.602;2022-07-29T12:32:03;28.90;28.60
975;DHT22;6115;49.296;10.602;2022-07-29T12:37:06;29.20;28.60
975;DHT22;6115;49.296;10.602;2022-07-29T12:42:14;29.40;28.70
975;DHT22;6115;49.296;10.602;2022-07-29T12:47:17;29.60;28.80
975;DHT22;6115;49.296;10.602;2022-07-29T12:52:29;29.30;28.70
975;DHT22;6115;49.296;10.602;2022-07-29T12:57:31;28.90;29.00
975;DHT22;6115;49.296;10.602;2022-07-29T13:02:32;28.60;29.70
975;DHT22;6115;49.296;10.602;2022-07-29T13:07:33;28.60;29.00
975;DHT22;6115;49.296;10.602;2022-07-29T13:12:37;28.80;30.00
975;DHT22;6115;49.296;10.602;2022-07-29T13:17:42;29.00;30.90
975;DHT22;6115;49.296;10.602;2022-07-29T13:22:47;28.80;30.20
975;DHT22;6115;49.296;10.602;2022-07-29T13:27:48;28.10;32.10
975;DHT22;6115;49.296;10.602;2022-07-29T13:32:49;27.80;34.40
975;DHT22;6115;49.296;10.602;2022-07-29T13:37:50;27.50;35.10
975;DHT22;6115;49.296;10.602;2022-07-29T13:42:50;27.20;36.70
975;DHT22;6115;49.296;10.602;2022-07-29T13:47:51;27.20;36.70
975;DHT22;6115;49.296;10.602;2022-07-29T13:52:52;27.50;36.90
975;DHT22;6115;49.296;10.602;2022-07-29T13:57:52;28.00;37.20
975;DHT22;6115;49.296;10.602;2022-07-29T14:02:56;28.50;37.60
975;DHT22;6115;49.296;10.602;2022-07-29T14:07:57;29.30;36.40
975;DHT22;6115;49.296;10.602;2022-07-29T14:12:57;30.10;33.70
975;DHT22;6115;49.296;10.602;2022-07-29T14:17:58;29.80;33.50
975;DHT22;6115;49.296;10.602;2022-07-29T14:22:58;29.80;32.20
975;DHT22;6115;49.296;10.602;2022-07-29T14:27:59;28.50;34.80
975;DHT22;6115;49.296;10.602;2022-07-29T14:33:00;27.20;37.80
975;DHT22;6115;49.296;10.602;2022-07-29T14:38:00;26.00;39.30
975;DHT22;6115;49.296;10.602;2022-07-29T14:43:01;25.00;43.70
975;DHT22;6115;49.296;10.602;2022-07-29T14:48:01;24.40;44.40
975;DHT22;6115;49.296;10.602;2022-07-29T14:53:02;24.10;46.30
975;DHT22;6115;49.296;10.602;2022-07-29T14:58:03;23.70;47.80
975;DHT22;6115;49.296;10.602;2022-07-29T15:03:04;23.20;47.60
975;DHT22;6115;49.296;10.602;2022-07-29T15:08:05;23.00;46.80
975;DHT22;6115;49.296;10.602;2022-07-29T15:13:07;22.70;48.60
975;DHT22;6115;49.296;10.602;2022-07-29T15:18:08;22.40;49.00
975;DHT22;6115;49.296;10.602;2022-07-29T15:23:09;21.90;50.10
975;DHT22;6115;49.296;10.602;2022-07-29T15:28:09;21.50;50.00
975;DHT22;6115;49.296;10.602;2022-07-29T15:33:10;21.50;51.30
975;DHT22;6115;49.296;10.602;2022-07-29T15:38:11;21.40;50.80
975;DHT22;6115;49.296;10.602;2022-07-29T15:43:11;21.50;51.60
975;DHT22;6115;49.296;10.602;2022-07-29T15:48:12;21.30;55.70
975;DHT22;6115;49.296;10.602;2022-07-29T15:53:13;20.30;63.80
975;DHT22;6115;49.296;10.602;2022-07-29T15:58:13;19.50;68.70
975;DHT22;6115;49.296;10.602;2022-07-29T16:03:14;18.90;73.20
975;DHT22;6115;49.296;10.602;2022-07-29T16:08:15;18.30;76.40
975;DHT22;6115;49.296;10.602;2022-07-29T16:13:16;17.90;77.00
975;DHT22;6115;49.296;10.602;2022-07-29T16:18:16;17.70;77.40
975;DHT22;6115;49.296;10.602;2022-07-29T16:23:17;17.70;78.20
975;DHT22;6115;49.296;10.602;2022-07-29T16:28:17;17.90;78.60
975;DHT22;6115;49.296;10.602;2022-07-29T16:33:18;18.00;79.90
975;DHT22;6115;49.296;10.602;2022-07-29T16:38:18;18.00;80.70
975;DHT22;6115;49.296;10.602;2022-07-29T16:43:19;18.00;81.20
975;DHT22;6115;49.296;10.602;2022-07-29T16:48:19;18.10;81.50
975;DHT22;6115;49.296;10.602;2022-07-29T16:53:22;18.20;82.10
975;DHT22;6115;49.296;10.602;2022-07-29T16:58:23;18.20;79.20
975;DHT22;6115;49.296;10.602;2022-07-29T17:03:23;18.30;78.40
975;DHT22;6115;49.296;10.602;2022-07-29T17:08:24;18.40;80.50
975;DHT22;6115;49.296;10.602;2022-07-29T17:13:25;18.50;82.50
975;DHT22;6115;49.296;10.602;2022-07-29T17:18:25;18.60;82.60
975;DHT22;6115;49.296;10.602;2022-07-29T17:23:26;18.70;82.60
975;DHT22;6115;49.296;10.602;2022-07-29T17:28:27;18.80;81.70
975;DHT22;6115;49.296;10.602;2022-07-29T17:33:27;18.60;80.90
975;DHT22;6115;49.296;10.602;2022-07-29T17:38:28;18.40;81.10
975;DHT22;6115;49.296;10.602;2022-07-29T17:43:28;18.30;82.30
975;DHT22;6115;49.296;10.602;2022-07-29T17:48:29;18.30;82.30
975;DHT22;6115;49.296;10.602;2022-07-29T17:53:30;18.30;82.30
975;DHT22;6115;49.296;10.602;2022-07-29T17:58:30;18.40;82.40
975;DHT22;6115;49.296;10.602;2022-07-29T18:03:31;18.60;82.20
975;DHT22;6115;49.296;10.602;2022-07-29T18:08:32;18.60;81.00
975;DHT22;6115;49.296;10.602;2022-07-29T18:13:32;18.70;81.30
975;DHT22;6115;49.296;10.602;2022-07-29T18:18:33;18.50;80.30
975;DHT22;6115;49.296;10.602;2022-07-29T18:23:34;18.50;80.00
975;DHT22;6115;49.296;10.602;2022-07-29T18:28:35;18.40;80.10
975;DHT22;6115;49.296;10.602;2022-07-29T18:33:36;18.50;80.60
975;DHT22;6115;49.296;10.602;2022-07-29T18:38:39;18.60;81.00
975;DHT22;6115;49.296;10.602;2022-07-29T18:43:40;18.70;80.60
975;DHT22;6115;49.296;10.602;2022-07-29T18:48:40;18.80;80.40
975;DHT22;6115;49.296;10.602;2022-07-29T18:53:41;18.80;79.90
975;DHT22;6115;49.296;10.602;2022-07-29T18:58:42;18.70;79.60
975;DHT22;6115;49.296;10.602;2022-07-29T19:03:42;18.70;80.20
975;DHT22;6115;49.296;10.602;2022-07-29T19:08:43;18.70;80.60
975;DHT22;6115;49.296;10.602;2022-07-29T19:13:43;18.60;81.10
975;DHT22;6115;49.296;10.602;2022-07-29T19:18:44;18.50;82.20
975;DHT22;6115;49.296;10.602;2022-07-29T19:23:47;18.50;82.40
975;DHT22;6115;49.296;10.602;2022-07-29T19:28:47;18.50;82.40
975;DHT22;6115;49.296;10.602;2022-07-29T19:33:48;18.50;82.40
975;DHT22;6115;49.296;10.602;2022-07-29T19:38:48;18.50;82.40
975;DHT22;6115;49.296;10.602;2022-07-29T19:43:49;18.40;82.60
975;DHT22;6115;49.296;10.602;2022-07-29T19:48:50;18.20;83.30
975;DHT22;6115;49.296;10.602;2022-07-29T19:53:52;18.20;83.50
975;DHT22;6115;49.296;10.602;2022-07-29T19:58:52;18.30;83.50
975;DHT22;6115;49.296;10.602;2022-07-29T20:03:53;18.20;83.50
975;DHT22;6115;49.296;10.602;2022-07-29T20:08:54;18.20;83.60
975;DHT22;6115;49.296;10.602;2022-07-29T20:13:55;18.20;83.50
975;DHT22;6115;49.296;10.602;2022-07-29T20:18:55;18.20;83.40
975;DHT22;6115;49.296;10.602;2022-07-29T20:23:56;18.10;83.30
975;DHT22;6115;49.296;10.602;2022-07-29T20:28:59;18.10;83.70
975;DHT22;6115;49.296;10.602;2022-07-29T20:34:00;18.10;83.50
975;DHT22;6115;49.296;10.602;2022-07-29T20:39:01;18.10;83.70
975;DHT22;6115;49.296;10.602;2022-07-29T20:44:02;18.00;83.70
975;DHT22;6115;49.296;10.602;2022-07-29T20:49:04;17.90;83.80
975;DHT22;6115;49.296;10.602;2022-07-29T20:54:04;17.90;84.60
975;DHT22;6115;49.296;10.602;2022-07-29T20:59:05;17.90;85.10
975;DHT22;6115;49.296;10.602;2022-07-29T21:04:06;17.90;84.60
975;DHT22;6115;49.296;10.602;2022-07-29T21:09:06;17.90;84.80
975;DHT22;6115;49.296;10.602;2022-07-29T21:14:07;17.90;84.80
975;DHT22;6115;49.296;10.602;2022-07-29T21:19:07;17.90;84.80
975;DHT22;6115;49.296;10.602;2022-07-29T21:24:08;18.10;84.80
975;DHT22;6115;49.296;10.602;2022-07-29T21:29:09;18.20;84.40
975;DHT22;6115;49.296;10.602;2022-07-29T21:34:09;18.20;84.40
975;DHT22;6115;49.296;10.602;2022-07-29T21:39:10;18.20;84.50
975;DHT22;6115;49.296;10.602;2022-07-29T21:44:10;18.20;84.30
975;DHT22;6115;49.296;10.602;2022-07-29T21:49:11;18.30;84.40
975;DHT22;6115;49.296;10.602;2022-07-29T21:54:12;18.10;85.10
975;DHT22;6115;49.296;10.602;2022-07-29T21:59:12;17.90;84.60
975;DHT22;6115;49.296;10.602;2022-07-29T22:04:13;17.80;84.80
975;DHT22;6115;49.296;10.602;2022-07-29T22:09:13;17.70;85.20
975;DHT22;6115;49.296;10.602;2022-07-29T22:14:14;17.70;85.30
975;DHT22;6115;49.296;10.602;2022-07-29T22:19:16;17.60;85.10
975;DHT22;6115;49.296;10.602;2022-07-29T22:24:17;17.50;85.10
975;DHT22;6115;49.296;10.602;2022-07-29T22:29:18;17.60;85.10
975;DHT22;6115;49.296;10.602;2022-07-29T22:34:19;17.60;85.30
975;DHT22;6115;49.296;10.602;2022-07-29T22:39:19;17.50;85.50
975;DHT22;6115;49.296;10.602;2022-07-29T22:44:20;17.50;85.40
975;DHT22;6115;49.296;10.602;2022-07-29T22:49:20;17.50;85.40
975;DHT22;6115;49.296;10.602;2022-07-29T22:54:21;17.50;85.40
975;DHT22;6115;49.296;10.602;2022-07-29T22:59:22;17.40;85.80
975;DHT22;6115;49.296;10.602;2022-07-29T23:04:22;17.30;86.10
975;DHT22;6115;49.296;10.602;2022-07-29T23:09:23;17.30;86.00
975;DHT22;6115;49.296;10.602;2022-07-29T23:14:24;17.30;86.00
975;DHT22;6115;49.296;10.602;2022-07-29T23:19:24;17.20;86.00
975;DHT22;6115;49.296;10.602;2022-07-29T23:24:25;17.00;85.80
975;DHT22;6115;49.296;10.602;2022-07-29T23:29:25;17.00;85.00
975;DHT22;6115;49.296;10.602;2022-07-29T23:34:26;17.10;85.10
975;DHT22;6115;49.296;10.602;2022-07-29T23:39:26;17.00;84.80
975;DHT22;6115;49.296;10.602;2022-07-29T23:44:27;17.00;84.70
975;DHT22;6115;49.296;10.602;2022-07-29T23:49:28;17.00;84.70
975;DHT22;6115;49.296;10.602;2022-07-29T23:54:28;16.90;84.60
975;DHT22;6115;49.296;10.602;2022-07-29T23:59:29;16.80;84.40
